sensor_id;sensor_type;location;lat;lon;timestamp;P1;durP1;ratioP1;P2;durP2;ratioP2
20456;SDS011;10387;51.102;6.848;2023-05-07T00:01:48;7.33;;;6.07;;
20456;SDS011;10387;51.102;6.848;2023-05-07T00:04:14;8.37;;;6.10;;
20456;SDS011;10387;51.102;6.848;2023-05-07T00:06:40;6.07;;;5.47;;
20456;SDS011;10387;51.102;6.848;2023-05-07T00:09:06;6.30;;;5.70;;
20456;SDS011;10387;51.102;6.848;2023-05-07T00:11:33;8.83;;;6.37;;
20456;SDS011;10387;51.102;6.848;2023-05-07T00:14:00;7.90;;;6.43;;
20456;SDS011;10387;51.102;6.848;2023-05-07T00:16:26;6.57;;;5.77;;
20456;SDS011;10387;51.102;6.848;2023-05-07T00:18:52;6.63;;;5.73;;
20456;SDS011;10387;51.102;6.848;2023-05-07T00:21:18;6.93;;;6.20;;
20456;SDS011;10387;51.102;6.848;2023-05-07T00:23:46;6.90;;;6.30;;
20456;SDS011;10387;51.102;6.848;2023-05-07T00:26:12;5.80;;;5.30;;
20456;SDS011;10387;51.102;6.848;2023-05-07T00:28:39;6.37;;;5.77;;
20456;SDS011;10387;51.102;6.848;2023-05-07T00:31:06;6.90;;;6.20;;
20456;SDS011;10387;51.102;6.848;2023-05-07T00:33:32;6.37;;;5.87;;
20456;SDS011;10387;51.102;6.848;2023-05-07T00:35:58;7.37;;;6.67;;
20456;SDS011;10387;51.102;6.848;2023-05-07T00:38:26;7.07;;;6.47;;
20456;SDS011;10387;51.102;6.848;2023-05-07T00:40:52;6.53;;;5.90;;
20456;SDS011;10387;51.102;6.848;2023-05-07T00:43:19;6.17;;;5.67;;
20456;SDS011;10387;51.102;6.848;2023-05-07T00:45:45;6.43;;;5.93;;
20456;SDS011;10387;51.102;6.848;2023-05-07T00:48:11;6.63;;;6.03;;
20456;SDS011;10387;51.102;6.848;2023-05-07T00:50:38;6.73;;;6.03;;
20456;SDS011;10387;51.102;6.848;2023-05-07T00:53:04;7.43;;;6.73;;
20456;SDS011;10387;51.102;6.848;2023-05-07T00:55:32;7.63;;;6.93;;
20456;SDS011;10387;51.102;6.848;2023-05-07T00:57:58;7.83;;;7.10;;
20456;SDS011;10387;51.102;6.848;2023-05-07T01:00:25;7.70;;;6.90;;
20456;SDS011;10387;51.102;6.848;2023-05-07T01:02:51;7.00;;;6.43;;
20456;SDS011;10387;51.102;6.848;2023-05-07T01:05:17;7.00;;;6.37;;
20456;SDS011;10387;51.102;6.848;2023-05-07T01:07:44;7.50;;;6.40;;
20456;SDS011;10387;51.102;6.848;2023-05-07T01:10:11;7.43;;;6.83;;
20456;SDS011;10387;51.102;6.848;2023-05-07T01:12:38;6.80;;;6.20;;
20456;SDS011;10387;51.102;6.848;2023-05-07T01:15:05;7.03;;;6.33;;
20456;SDS011;10387;51.102;6.848;2023-05-07T01:17:35;6.73;;;6.13;;
20456;SDS011;10387;51.102;6.848;2023-05-07T01:20:02;6.87;;;6.33;;
20456;SDS011;10387;51.102;6.848;2023-05-07T01:22:31;6.13;;;5.63;;
20456;SDS011;10387;51.102;6.848;2023-05-07T01:24:58;7.07;;;6.47;;
20456;SDS011;10387;51.102;6.848;2023-05-07T01:27:26;6.50;;;5.90;;
20456;SDS011;10387;51.102;6.848;2023-05-07T01:29:52;6.63;;;6.03;;
20456;SDS011;10387;51.102;6.848;2023-05-07T01:32:23;6.27;;;5.77;;
20456;SDS011;10387;51.102;6.848;2023-05-07T01:34:51;6.57;;;5.97;;
20456;SDS011;10387;51.102;6.848;2023-05-07T01:37:19;6.90;;;6.20;;
20456;SDS011;10387;51.102;6.848;2023-05-07T01:39:45;6.60;;;6.00;;
20456;SDS011;10387;51.102;6.848;2023-05-07T01:42:12;6.50;;;5.90;;
20456;SDS011;10387;51.102;6.848;2023-05-07T01:44:38;6.93;;;6.27;;
20456;SDS011;10387;51.102;6.848;2023-05-07T01:47:04;7.00;;;6.30;;
20456;SDS011;10387;51.102;6.848;2023-05-07T01:49:31;7.10;;;6.37;;
20456;SDS011;10387;51.102;6.848;2023-05-07T01:51:58;6.27;;;5.67;;
20456;SDS011;10387;51.102;6.848;2023-05-07T01:54:27;7.10;;;6.37;;
20456;SDS011;10387;51.102;6.848;2023-05-07T01:56:56;6.13;;;5.57;;
20456;SDS011;10387;51.102;6.848;2023-05-07T01:59:23;7.13;;;5.70;;
20456;SDS011;10387;51.102;6.848;2023-05-07T02:01:50;6.67;;;6.10;;
20456;SDS011;10387;51.102;6.848;2023-05-07T02:04:16;6.50;;;5.80;;
20456;SDS011;10387;51.102;6.848;2023-05-07T02:06:43;6.10;;;5.50;;
20456;SDS011;10387;51.102;6.848;2023-05-07T02:09:13;5.77;;;5.30;;
20456;SDS011;10387;51.102;6.848;2023-05-07T02:11:41;6.10;;;5.60;;
20456;SDS011;10387;51.102;6.848;2023-05-07T02:14:08;5.60;;;5.20;;
20456;SDS011;10387;51.102;6.848;2023-05-07T02:16:34;6.73;;;5.70;;
20456;SDS011;10387;51.102;6.848;2023-05-07T02:19:00;5.57;;;5.10;;
20456;SDS011;10387;51.102;6.848;2023-05-07T02:21:26;6.30;;;5.70;;
20456;SDS011;10387;51.102;6.848;2023-05-07T02:23:53;5.90;;;5.50;;
20456;SDS011;10387;51.102;6.848;2023-05-07T02:26:19;6.07;;;5.53;;
20456;SDS011;10387;51.102;6.848;2023-05-07T02:28:46;6.17;;;5.53;;
20456;SDS011;10387;51.102;6.848;2023-05-07T02:31:13;5.97;;;5.33;;
20456;SDS011;10387;51.102;6.848;2023-05-07T02:33:39;5.67;;;5.10;;
20456;SDS011;10387;51.102;6.848;2023-05-07T02:36:08;6.60;;;5.93;;
20456;SDS011;10387;51.102;6.848;2023-05-07T02:38:40;6.13;;;5.40;;
20456;SDS011;10387;51.102;6.848;2023-05-07T02:41:06;5.93;;;5.43;;
20456;SDS011;10387;51.102;6.848;2023-05-07T02:43:32;6.53;;;5.90;;
20456;SDS011;10387;51.102;6.848;2023-05-07T02:46:05;6.20;;;5.70;;
20456;SDS011;10387;51.102;6.848;2023-05-07T02:48:34;6.50;;;5.90;;
20456;SDS011;10387;51.102;6.848;2023-05-07T02:51:01;6.27;;;5.67;;
20456;SDS011;10387;51.102;6.848;2023-05-07T02:53:28;8.87;;;5.87;;
20456;SDS011;10387;51.102;6.848;2023-05-07T02:55:59;6.00;;;5.50;;
20456;SDS011;10387;51.102;6.848;2023-05-07T02:58:25;6.30;;;5.70;;
20456;SDS011;10387;51.102;6.848;2023-05-07T03:00:52;6.10;;;5.57;;
20456;SDS011;10387;51.102;6.848;2023-05-07T03:03:38;6.30;;;5.73;;
20456;SDS011;10387;51.102;6.848;2023-05-07T03:06:04;6.03;;;5.47;;
20456;SDS011;10387;51.102;6.848;2023-05-07T03:08:31;6.27;;;5.70;;
20456;SDS011;10387;51.102;6.848;2023-05-07T03:10:58;6.50;;;5.87;;
20456;SDS011;10387;51.102;6.848;2023-05-07T03:13:24;6.23;;;5.73;;
20456;SDS011;10387;51.102;6.848;2023-05-07T03:15:51;6.80;;;6.20;;
20456;SDS011;10387;51.102;6.848;2023-05-07T03:18:17;9.70;;;6.23;;
20456;SDS011;10387;51.102;6.848;2023-05-07T03:20:43;6.60;;;6.00;;
20456;SDS011;10387;51.102;6.848;2023-05-07T03:23:10;5.63;;;5.23;;
20456;SDS011;10387;51.102;6.848;2023-05-07T03:25:36;6.07;;;4.90;;
20456;SDS011;10387;51.102;6.848;2023-05-07T03:28:02;5.97;;;5.37;;
20456;SDS011;10387;51.102;6.848;2023-05-07T03:30:37;5.83;;;5.27;;
20456;SDS011;10387;51.102;6.848;2023-05-07T03:33:04;6.10;;;5.60;;
20456;SDS011;10387;51.102;6.848;2023-05-07T03:35:30;5.50;;;5.00;;
20456;SDS011;10387;51.102;6.848;2023-05-07T03:37:56;5.30;;;4.90;;
20456;SDS011;10387;51.102;6.848;2023-05-07T03:40:22;5.30;;;4.80;;
20456;SDS011;10387;51.102;6.848;2023-05-07T03:42:52;5.20;;;4.70;;
20456;SDS011;10387;51.102;6.848;2023-05-07T03:45:23;5.83;;;5.33;;
20456;SDS011;10387;51.102;6.848;2023-05-07T03:47:58;5.53;;;5.03;;
20456;SDS011;10387;51.102;6.848;2023-05-07T03:50:24;5.30;;;4.63;;
20456;SDS011;10387;51.102;6.848;2023-05-07T03:52:50;5.40;;;4.90;;
20456;SDS011;10387;51.102;6.848;2023-05-07T03:55:20;5.97;;;5.30;;
20456;SDS011;10387;51.102;6.848;2023-05-07T03:57:51;5.90;;;5.30;;
20456;SDS011;10387;51.102;6.848;2023-05-07T04:00:18;6.37;;;5.50;;
20456;SDS011;10387;51.102;6.848;2023-05-07T04:02:48;5.00;;;4.50;;
20456;SDS011;10387;51.102;6.848;2023-05-07T04:05:21;5.60;;;5.00;;
20456;SDS011;10387;51.102;6.848;2023-05-07T04:07:50;5.67;;;5.17;;
20456;SDS011;10387;51.102;6.848;2023-05-07T04:10:21;5.40;;;4.90;;
20456;SDS011;10387;51.102;6.848;2023-05-07T04:12:50;6.93;;;5.10;;
20456;SDS011;10387;51.102;6.848;2023-05-07T04:15:20;5.23;;;4.73;;
20456;SDS011;10387;51.102;6.848;2023-05-07T04:17:47;6.53;;;5.50;;
20456;SDS011;10387;51.102;6.848;2023-05-07T04:20:16;5.83;;;5.23;;
20456;SDS011;10387;51.102;6.848;2023-05-07T04:22:45;5.20;;;4.70;;
20456;SDS011;10387;51.102;6.848;2023-05-07T04:25:11;5.20;;;4.80;;
20456;SDS011;10387;51.102;6.848;2023-05-07T04:27:38;5.23;;;4.50;;
20456;SDS011;10387;51.102;6.848;2023-05-07T04:30:04;4.90;;;4.50;;
20456;SDS011;10387;51.102;6.848;2023-05-07T04:32:36;4.93;;;4.43;;
20456;SDS011;10387;51.102;6.848;2023-05-07T04:35:03;4.80;;;4.40;;
20456;SDS011;10387;51.102;6.848;2023-05-07T04:37:31;5.43;;;4.93;;
20456;SDS011;10387;51.102;6.848;2023-05-07T04:39:57;5.93;;;4.57;;
20456;SDS011;10387;51.102;6.848;2023-05-07T04:42:24;5.00;;;4.50;;
20456;SDS011;10387;51.102;6.848;2023-05-07T04:44:52;4.87;;;4.47;;
20456;SDS011;10387;51.102;6.848;2023-05-07T04:47:19;5.13;;;4.57;;
20456;SDS011;10387;51.102;6.848;2023-05-07T04:49:46;4.83;;;4.43;;
20456;SDS011;10387;51.102;6.848;2023-05-07T04:52:12;5.13;;;4.67;;
20456;SDS011;10387;51.102;6.848;2023-05-07T04:54:39;5.17;;;4.67;;
20456;SDS011;10387;51.102;6.848;2023-05-07T04:57:06;5.97;;;4.50;;
20456;SDS011;10387;51.102;6.848;2023-05-07T04:59:33;5.10;;;4.60;;
20456;SDS011;10387;51.102;6.848;2023-05-07T05:01:59;5.77;;;4.50;;
20456;SDS011;10387;51.102;6.848;2023-05-07T05:04:26;4.73;;;4.33;;
20456;SDS011;10387;51.102;6.848;2023-05-07T05:06:53;6.30;;;4.73;;
20456;SDS011;10387;51.102;6.848;2023-05-07T05:09:20;5.77;;;4.93;;
20456;SDS011;10387;51.102;6.848;2023-05-07T05:11:46;6.30;;;4.50;;
20456;SDS011;10387;51.102;6.848;2023-05-07T05:14:12;5.23;;;4.83;;
20456;SDS011;10387;51.102;6.848;2023-05-07T05:16:39;5.87;;;4.63;;
20456;SDS011;10387;51.102;6.848;2023-05-07T05:19:06;4.70;;;4.30;;
20456;SDS011;10387;51.102;6.848;2023-05-07T05:21:35;4.57;;;4.23;;
20456;SDS011;10387;51.102;6.848;2023-05-07T05:24:06;5.40;;;4.90;;
20456;SDS011;10387;51.102;6.848;2023-05-07T05:26:32;4.77;;;4.37;;
20456;SDS011;10387;51.102;6.848;2023-05-07T05:28:58;4.90;;;4.47;;
20456;SDS011;10387;51.102;6.848;2023-05-07T05:31:27;5.33;;;4.77;;
20456;SDS011;10387;51.102;6.848;2023-05-07T05:33:54;4.33;;;3.93;;
20456;SDS011;10387;51.102;6.848;2023-05-07T05:36:20;4.60;;;4.20;;
20456;SDS011;10387;51.102;6.848;2023-05-07T05:38:48;5.77;;;4.60;;
20456;SDS011;10387;51.102;6.848;2023-05-07T05:41:15;5.03;;;4.47;;
20456;SDS011;10387;51.102;6.848;2023-05-07T05:43:41;4.40;;;4.00;;
20456;SDS011;10387;51.102;6.848;2023-05-07T05:46:09;4.57;;;4.17;;
20456;SDS011;10387;51.102;6.848;2023-05-07T05:48:37;4.93;;;4.40;;
20456;SDS011;10387;51.102;6.848;2023-05-07T05:51:04;4.30;;;3.90;;
20456;SDS011;10387;51.102;6.848;2023-05-07T05:53:31;4.30;;;3.90;;
20456;SDS011;10387;51.102;6.848;2023-05-07T05:55:57;4.50;;;4.13;;
20456;SDS011;10387;51.102;6.848;2023-05-07T05:58:24;4.50;;;4.20;;
20456;SDS011;10387;51.102;6.848;2023-05-07T06:00:56;4.37;;;3.90;;
20456;SDS011;10387;51.102;6.848;2023-05-07T06:03:24;4.13;;;3.83;;
20456;SDS011;10387;51.102;6.848;2023-05-07T06:05:51;4.13;;;3.80;;
20456;SDS011;10387;51.102;6.848;2023-05-07T06:08:19;3.57;;;3.27;;
20456;SDS011;10387;51.102;6.848;2023-05-07T06:10:46;4.10;;;3.77;;
20456;SDS011;10387;51.102;6.848;2023-05-07T06:13:12;4.03;;;3.53;;
20456;SDS011;10387;51.102;6.848;2023-05-07T06:15:39;4.47;;;3.93;;
20456;SDS011;10387;51.102;6.848;2023-05-07T06:18:09;4.80;;;3.50;;
20456;SDS011;10387;51.102;6.848;2023-05-07T06:20:35;4.10;;;3.70;;
20456;SDS011;10387;51.102;6.848;2023-05-07T06:23:03;3.57;;;3.20;;
20456;SDS011;10387;51.102;6.848;2023-05-07T06:25:32;4.93;;;3.37;;
20456;SDS011;10387;51.102;6.848;2023-05-07T06:27:58;3.57;;;3.30;;
20456;SDS011;10387;51.102;6.848;2023-05-07T06:30:25;3.80;;;3.50;;
20456;SDS011;10387;51.102;6.848;2023-05-07T06:32:53;3.70;;;3.40;;
20456;SDS011;10387;51.102;6.848;2023-05-07T06:35:20;4.30;;;4.00;;
20456;SDS011;10387;51.102;6.848;2023-05-07T06:37:46;3.40;;;3.20;;
20456;SDS011;10387;51.102;6.848;2023-05-07T06:40:20;5.13;;;3.60;;
20456;SDS011;10387;51.102;6.848;2023-05-07T06:42:47;3.90;;;3.50;;
20456;SDS011;10387;51.102;6.848;2023-05-07T06:45:23;5.10;;;3.60;;
20456;SDS011;10387;51.102;6.848;2023-05-07T06:47:52;4.10;;;3.17;;
20456;SDS011;10387;51.102;6.848;2023-05-07T06:50:18;3.30;;;3.00;;
20456;SDS011;10387;51.102;6.848;2023-05-07T06:52:45;3.80;;;3.40;;
20456;SDS011;10387;51.102;6.848;2023-05-07T06:55:11;4.07;;;2.83;;
20456;SDS011;10387;51.102;6.848;2023-05-07T06:57:37;4.10;;;3.67;;
20456;SDS011;10387;51.102;6.848;2023-05-07T07:00:04;3.93;;;3.03;;
20456;SDS011;10387;51.102;6.848;2023-05-07T07:02:40;3.60;;;3.00;;
20456;SDS011;10387;51.102;6.848;2023-05-07T07:05:10;3.63;;;3.33;;
20456;SDS011;10387;51.102;6.848;2023-05-07T07:07:37;3.50;;;3.20;;
20456;SDS011;10387;51.102;6.848;2023-05-07T07:10:03;3.37;;;2.90;;
20456;SDS011;10387;51.102;6.848;2023-05-07T07:12:30;3.83;;;3.53;;
20456;SDS011;10387;51.102;6.848;2023-05-07T07:14:59;4.13;;;3.73;;
20456;SDS011;10387;51.102;6.848;2023-05-07T07:17:26;4.33;;;3.93;;
20456;SDS011;10387;51.102;6.848;2023-05-07T07:19:54;5.90;;;3.50;;
20456;SDS011;10387;51.102;6.848;2023-05-07T07:22:20;4.50;;;4.10;;
20456;SDS011;10387;51.102;6.848;2023-05-07T07:24:46;5.40;;;4.17;;
20456;SDS011;10387;51.102;6.848;2023-05-07T07:27:15;5.20;;;4.73;;
20456;SDS011;10387;51.102;6.848;2023-05-07T07:29:41;5.73;;;5.10;;
20456;SDS011;10387;51.102;6.848;2023-05-07T07:32:08;5.70;;;5.20;;
20456;SDS011;10387;51.102;6.848;2023-05-07T07:34:34;5.40;;;4.90;;
20456;SDS011;10387;51.102;6.848;2023-05-07T07:37:01;5.07;;;4.43;;
20456;SDS011;10387;51.102;6.848;2023-05-07T07:39:34;5.83;;;5.20;;
20456;SDS011;10387;51.102;6.848;2023-05-07T07:42:03;5.37;;;4.67;;
20456;SDS011;10387;51.102;6.848;2023-05-07T07:44:29;4.63;;;4.17;;
20456;SDS011;10387;51.102;6.848;2023-05-07T07:47:00;4.67;;;3.30;;
20456;SDS011;10387;51.102;6.848;2023-05-07T07:49:27;4.83;;;3.00;;
20456;SDS011;10387;51.102;6.848;2023-05-07T07:51:55;3.00;;;2.70;;
20456;SDS011;10387;51.102;6.848;2023-05-07T07:54:24;3.33;;;2.90;;
20456;SDS011;10387;51.102;6.848;2023-05-07T07:56:51;3.43;;;2.63;;
20456;SDS011;10387;51.102;6.848;2023-05-07T07:59:18;3.00;;;2.60;;
20456;SDS011;10387;51.102;6.848;2023-05-07T08:01:47;4.10;;;2.63;;
20456;SDS011;10387;51.102;6.848;2023-05-07T08:04:15;4.40;;;2.50;;
20456;SDS011;10387;51.102;6.848;2023-05-07T08:06:42;3.30;;;2.63;;
20456;SDS011;10387;51.102;6.848;2023-05-07T08:09:09;2.70;;;2.40;;
20456;SDS011;10387;51.102;6.848;2023-05-07T08:11:38;3.20;;;2.50;;
20456;SDS011;10387;51.102;6.848;2023-05-07T08:14:05;2.70;;;2.50;;
20456;SDS011;10387;51.102;6.848;2023-05-07T08:16:31;3.27;;;2.43;;
20456;SDS011;10387;51.102;6.848;2023-05-07T08:18:59;2.80;;;2.27;;
20456;SDS011;10387;51.102;6.848;2023-05-07T08:21:26;5.33;;;2.87;;
20456;SDS011;10387;51.102;6.848;2023-05-07T08:23:52;3.80;;;2.70;;
20456;SDS011;10387;51.102;6.848;2023-05-07T08:26:19;3.57;;;2.57;;
20456;SDS011;10387;51.102;6.848;2023-05-07T08:28:46;3.97;;;2.77;;
20456;SDS011;10387;51.102;6.848;2023-05-07T08:31:12;2.93;;;2.73;;
20456;SDS011;10387;51.102;6.848;2023-05-07T08:33:40;2.97;;;2.63;;
20456;SDS011;10387;51.102;6.848;2023-05-07T08:36:06;2.50;;;2.30;;
20456;SDS011;10387;51.102;6.848;2023-05-07T08:38:33;3.53;;;2.33;;
20456;SDS011;10387;51.102;6.848;2023-05-07T08:40:59;2.70;;;2.43;;
20456;SDS011;10387;51.102;6.848;2023-05-07T08:43:28;3.63;;;2.33;;
20456;SDS011;10387;51.102;6.848;2023-05-07T08:45:54;2.70;;;2.50;;
20456;SDS011;10387;51.102;6.848;2023-05-07T08:48:24;2.50;;;2.30;;
20456;SDS011;10387;51.102;6.848;2023-05-07T08:51:02;2.60;;;2.30;;
20456;SDS011;10387;51.102;6.848;2023-05-07T08:53:30;2.50;;;2.30;;
20456;SDS011;10387;51.102;6.848;2023-05-07T08:55:57;2.77;;;2.33;;
20456;SDS011;10387;51.102;6.848;2023-05-07T08:58:23;2.53;;;2.30;;
20456;SDS011;10387;51.102;6.848;2023-05-07T09:00:50;2.73;;;2.47;;
20456;SDS011;10387;51.102;6.848;2023-05-07T09:03:17;3.87;;;2.47;;
20456;SDS011;10387;51.102;6.848;2023-05-07T09:05:47;2.57;;;2.23;;
20456;SDS011;10387;51.102;6.848;2023-05-07T09:08:15;2.40;;;2.20;;
20456;SDS011;10387;51.102;6.848;2023-05-07T09:10:44;2.57;;;2.20;;
20456;SDS011;10387;51.102;6.848;2023-05-07T09:13:10;3.87;;;2.50;;
20456;SDS011;10387;51.102;6.848;2023-05-07T09:15:39;4.10;;;2.30;;
20456;SDS011;10387;51.102;6.848;2023-05-07T09:18:06;2.33;;;2.13;;
20456;SDS011;10387;51.102;6.848;2023-05-07T09:20:34;2.70;;;2.40;;
20456;SDS011;10387;51.102;6.848;2023-05-07T09:23:02;2.87;;;2.10;;
20456;SDS011;10387;51.102;6.848;2023-05-07T09:25:29;2.50;;;2.30;;
20456;SDS011;10387;51.102;6.848;2023-05-07T09:27:57;4.20;;;2.40;;
20456;SDS011;10387;51.102;6.848;2023-05-07T09:30:27;3.17;;;2.17;;
20456;SDS011;10387;51.102;6.848;2023-05-07T09:32:54;2.13;;;2.00;;
20456;SDS011;10387;51.102;6.848;2023-05-07T09:35:21;2.10;;;1.90;;
20456;SDS011;10387;51.102;6.848;2023-05-07T09:37:56;2.93;;;2.27;;
20456;SDS011;10387;51.102;6.848;2023-05-07T09:40:27;2.43;;;1.90;;
20456;SDS011;10387;51.102;6.848;2023-05-07T09:42:56;2.20;;;2.10;;
20456;SDS011;10387;51.102;6.848;2023-05-07T09:45:36;2.70;;;2.50;;
20456;SDS011;10387;51.102;6.848;2023-05-07T09:48:04;2.90;;;2.33;;
20456;SDS011;10387;51.102;6.848;2023-05-07T09:50:40;2.87;;;2.37;;
20456;SDS011;10387;51.102;6.848;2023-05-07T09:53:10;2.70;;;2.50;;
20456;SDS011;10387;51.102;6.848;2023-05-07T09:55:37;2.67;;;2.33;;
20456;SDS011;10387;51.102;6.848;2023-05-07T09:58:04;3.93;;;2.40;;
20456;SDS011;10387;51.102;6.848;2023-05-07T10:00:31;2.10;;;1.90;;
20456;SDS011;10387;51.102;6.848;2023-05-07T10:03:06;2.30;;;2.10;;
20456;SDS011;10387;51.102;6.848;2023-05-07T10:05:53;2.47;;;2.10;;
20456;SDS011;10387;51.102;6.848;2023-05-07T10:08:20;3.13;;;2.37;;
20456;SDS011;10387;51.102;6.848;2023-05-07T10:10:49;2.50;;;2.30;;
20456;SDS011;10387;51.102;6.848;2023-05-07T10:13:20;2.87;;;2.47;;
20456;SDS011;10387;51.102;6.848;2023-05-07T10:15:49;2.30;;;2.10;;
20456;SDS011;10387;51.102;6.848;2023-05-07T10:18:17;2.87;;;2.40;;
20456;SDS011;10387;51.102;6.848;2023-05-07T10:20:47;3.00;;;2.47;;
20456;SDS011;10387;51.102;6.848;2023-05-07T10:23:14;2.57;;;2.03;;
20456;SDS011;10387;51.102;6.848;2023-05-07T10:25:46;2.40;;;2.20;;
20456;SDS011;10387;51.102;6.848;2023-05-07T10:28:18;2.53;;;2.33;;
20456;SDS011;10387;51.102;6.848;2023-05-07T10:30:57;2.43;;;2.20;;
20456;SDS011;10387;51.102;6.848;2023-05-07T10:33:29;3.17;;;2.17;;
20456;SDS011;10387;51.102;6.848;2023-05-07T10:35:58;3.03;;;2.50;;
20456;SDS011;10387;51.102;6.848;2023-05-07T10:38:26;3.07;;;2.53;;
20456;SDS011;10387;51.102;6.848;2023-05-07T10:40:53;3.70;;;2.37;;
20456;SDS011;10387;51.102;6.848;2023-05-07T10:43:19;2.47;;;1.93;;
20456;SDS011;10387;51.102;6.848;2023-05-07T10:46:09;3.27;;;2.17;;
20456;SDS011;10387;51.102;6.848;2023-05-07T10:49:06;3.93;;;2.20;;
20456;SDS011;10387;51.102;6.848;2023-05-07T10:51:24;2.87;;;2.50;;
20456;SDS011;10387;51.102;6.848;2023-05-07T10:56:41;4.07;;;2.50;;
20456;SDS011;10387;51.102;6.848;2023-05-07T11:01:53;3.10;;;2.40;;
20456;SDS011;10387;51.102;6.848;2023-05-07T11:04:29;2.70;;;2.50;;
20456;SDS011;10387;51.102;6.848;2023-05-07T11:07:25;6.10;;;2.30;;
20456;SDS011;10387;51.102;6.848;2023-05-07T11:15:06;2.47;;;2.28;;
20456;SDS011;10387;51.102;6.848;2023-05-07T11:17:35;2.67;;;2.03;;
20456;SDS011;10387;51.102;6.848;2023-05-07T11:20:17;2.40;;;2.15;;
20456;SDS011;10387;51.102;6.848;2023-05-07T11:22:48;2.20;;;2.00;;
20456;SDS011;10387;51.102;6.848;2023-05-07T11:25:22;2.05;;;1.95;;
20456;SDS011;10387;51.102;6.848;2023-05-07T11:28:05;2.83;;;2.17;;
20456;SDS011;10387;51.102;6.848;2023-05-07T11:30:31;2.50;;;2.30;;
20456;SDS011;10387;51.102;6.848;2023-05-07T11:32:57;2.58;;;2.20;;
20456;SDS011;10387;51.102;6.848;2023-05-07T11:35:24;4.07;;;2.30;;
20456;SDS011;10387;51.102;6.848;2023-05-07T11:37:57;2.42;;;2.22;;
20456;SDS011;10387;51.102;6.848;2023-05-07T11:40:23;2.90;;;2.20;;
20456;SDS011;10387;51.102;6.848;2023-05-07T11:42:50;2.50;;;2.22;;
20456;SDS011;10387;51.102;6.848;2023-05-07T11:45:22;2.67;;;2.45;;
20456;SDS011;10387;51.102;6.848;2023-05-07T11:47:50;3.05;;;2.30;;
20456;SDS011;10387;51.102;6.848;2023-05-07T11:50:17;3.92;;;2.15;;
20456;SDS011;10387;51.102;6.848;2023-05-07T11:52:50;2.40;;;2.20;;
20456;SDS011;10387;51.102;6.848;2023-05-07T11:55:17;2.88;;;2.40;;
20456;SDS011;10387;51.102;6.848;2023-05-07T11:57:44;2.33;;;2.13;;
20456;SDS011;10387;51.102;6.848;2023-05-07T12:00:11;3.17;;;2.58;;
20456;SDS011;10387;51.102;6.848;2023-05-07T12:02:37;2.45;;;1.98;;
20456;SDS011;10387;51.102;6.848;2023-05-07T12:05:04;2.63;;;1.92;;
20456;SDS011;10387;51.102;6.848;2023-05-07T12:07:30;2.15;;;1.98;;
20456;SDS011;10387;51.102;6.848;2023-05-07T12:09:57;1.90;;;1.80;;
20456;SDS011;10387;51.102;6.848;2023-05-07T12:12:24;2.30;;;2.10;;
20456;SDS011;10387;51.102;6.848;2023-05-07T12:14:52;2.70;;;2.30;;
20456;SDS011;10387;51.102;6.848;2023-05-07T12:17:18;2.10;;;1.90;;
20456;SDS011;10387;51.102;6.848;2023-05-07T12:19:44;3.17;;;2.33;;
20456;SDS011;10387;51.102;6.848;2023-05-07T12:22:11;5.03;;;4.60;;
20456;SDS011;10387;51.102;6.848;2023-05-07T12:24:44;2.42;;;2.22;;
20456;SDS011;10387;51.102;6.848;2023-05-07T12:27:12;3.33;;;2.33;;
20456;SDS011;10387;51.102;6.848;2023-05-07T12:29:39;2.17;;;2.05;;
20456;SDS011;10387;51.102;6.848;2023-05-07T12:32:12;2.65;;;1.88;;
20456;SDS011;10387;51.102;6.848;2023-05-07T12:34:39;1.98;;;1.83;;
20456;SDS011;10387;51.102;6.848;2023-05-07T12:37:08;1.92;;;1.83;;
20456;SDS011;10387;51.102;6.848;2023-05-07T12:39:35;2.00;;;1.90;;
20456;SDS011;10387;51.102;6.848;2023-05-07T12:42:07;2.90;;;1.75;;
20456;SDS011;10387;51.102;6.848;2023-05-07T12:44:35;1.90;;;1.77;;
20456;SDS011;10387;51.102;6.848;2023-05-07T12:47:02;4.68;;;2.00;;
20456;SDS011;10387;51.102;6.848;2023-05-07T12:49:28;3.10;;;2.42;;
20456;SDS011;10387;51.102;6.848;2023-05-07T12:51:54;2.08;;;1.88;;
20456;SDS011;10387;51.102;6.848;2023-05-07T12:54:34;1.92;;;1.83;;
20456;SDS011;10387;51.102;6.848;2023-05-07T12:57:05;2.30;;;2.08;;
20456;SDS011;10387;51.102;6.848;2023-05-07T12:59:44;5.35;;;2.30;;
20456;SDS011;10387;51.102;6.848;2023-05-07T13:02:11;2.03;;;1.83;;
20456;SDS011;10387;51.102;6.848;2023-05-07T13:04:39;2.30;;;1.93;;
20456;SDS011;10387;51.102;6.848;2023-05-07T13:07:08;3.47;;;2.40;;
20456;SDS011;10387;51.102;6.848;2023-05-07T13:09:34;3.00;;;1.93;;
20456;SDS011;10387;51.102;6.848;2023-05-07T13:12:02;2.50;;;2.30;;
20456;SDS011;10387;51.102;6.848;2023-05-07T13:14:28;2.60;;;2.10;;
20456;SDS011;10387;51.102;6.848;2023-05-07T13:16:54;2.50;;;2.30;;
20456;SDS011;10387;51.102;6.848;2023-05-07T13:19:20;4.30;;;2.50;;
20456;SDS011;10387;51.102;6.848;2023-05-07T13:21:46;2.17;;;2.03;;
20456;SDS011;10387;51.102;6.848;2023-05-07T13:24:14;2.50;;;2.10;;
20456;SDS011;10387;51.102;6.848;2023-05-07T13:26:43;2.40;;;2.20;;
20456;SDS011;10387;51.102;6.848;2023-05-07T13:29:09;2.60;;;2.40;;
20456;SDS011;10387;51.102;6.848;2023-05-07T13:31:35;3.00;;;2.80;;
20456;SDS011;10387;51.102;6.848;2023-05-07T13:34:04;2.90;;;2.40;;
20456;SDS011;10387;51.102;6.848;2023-05-07T13:36:31;2.90;;;2.37;;
20456;SDS011;10387;51.102;6.848;2023-05-07T13:39:02;2.50;;;2.27;;
20456;SDS011;10387;51.102;6.848;2023-05-07T13:41:28;3.50;;;2.43;;
20456;SDS011;10387;51.102;6.848;2023-05-07T13:43:55;3.60;;;2.40;;
20456;SDS011;10387;51.102;6.848;2023-05-07T13:46:21;4.07;;;2.30;;
20456;SDS011;10387;51.102;6.848;2023-05-07T13:48:48;2.70;;;2.50;;
20456;SDS011;10387;51.102;6.848;2023-05-07T13:51:18;3.03;;;2.83;;
20456;SDS011;10387;51.102;6.848;2023-05-07T13:53:44;3.63;;;3.00;;
20456;SDS011;10387;51.102;6.848;2023-05-07T13:56:10;3.93;;;2.60;;
20456;SDS011;10387;51.102;6.848;2023-05-07T13:58:36;4.53;;;2.90;;
20456;SDS011;10387;51.102;6.848;2023-05-07T14:01:02;3.70;;;3.10;;
20456;SDS011;10387;51.102;6.848;2023-05-07T14:03:28;3.37;;;3.07;;
20456;SDS011;10387;51.102;6.848;2023-05-07T14:05:56;3.40;;;2.90;;
20456;SDS011;10387;51.102;6.848;2023-05-07T14:08:25;3.10;;;2.80;;
20456;SDS011;10387;51.102;6.848;2023-05-07T14:10:52;3.37;;;2.90;;
20456;SDS011;10387;51.102;6.848;2023-05-07T14:13:18;5.27;;;4.00;;
20456;SDS011;10387;51.102;6.848;2023-05-07T14:15:45;4.97;;;3.70;;
20456;SDS011;10387;51.102;6.848;2023-05-07T14:18:12;4.10;;;3.70;;
20456;SDS011;10387;51.102;6.848;2023-05-07T14:20:38;4.20;;;3.80;;
20456;SDS011;10387;51.102;6.848;2023-05-07T14:23:04;5.57;;;4.30;;
20456;SDS011;10387;51.102;6.848;2023-05-07T14:25:32;5.83;;;4.93;;
20456;SDS011;10387;51.102;6.848;2023-05-07T14:27:58;5.60;;;4.90;;
20456;SDS011;10387;51.102;6.848;2023-05-07T14:30:25;7.57;;;5.37;;
20456;SDS011;10387;51.102;6.848;2023-05-07T14:32:52;6.03;;;5.43;;
20456;SDS011;10387;51.102;6.848;2023-05-07T14:35:19;9.00;;;5.20;;
20456;SDS011;10387;51.102;6.848;2023-05-07T14:37:46;6.57;;;5.10;;
20456;SDS011;10387;51.102;6.848;2023-05-07T14:40:12;3.90;;;3.60;;
20456;SDS011;10387;51.102;6.848;2023-05-07T14:42:40;4.67;;;3.70;;
20456;SDS011;10387;51.102;6.848;2023-05-07T14:45:06;5.10;;;4.10;;
20456;SDS011;10387;51.102;6.848;2023-05-07T14:47:32;4.63;;;4.13;;
20456;SDS011;10387;51.102;6.848;2023-05-07T14:49:59;6.17;;;4.40;;
20456;SDS011;10387;51.102;6.848;2023-05-07T14:52:26;5.10;;;4.60;;
20456;SDS011;10387;51.102;6.848;2023-05-07T14:54:52;5.80;;;5.00;;
20456;SDS011;10387;51.102;6.848;2023-05-07T14:57:18;6.53;;;5.43;;
20456;SDS011;10387;51.102;6.848;2023-05-07T14:59:45;5.47;;;4.97;;
20456;SDS011;10387;51.102;6.848;2023-05-07T15:02:12;5.43;;;4.80;;
20456;SDS011;10387;51.102;6.848;2023-05-07T15:04:38;5.80;;;5.00;;